Funds performance table by strategy

help icon
fund name 1 mth 3 mth 12 mthsort icon ytd Inception Net assets Return Date
Harvest SZSE SME-CHINEXT 400 ETF 24% 49% 79% 49% 32% 119M 2015-03-31
GS China Institutional Voting Acc USD 12% 14% 79% 14% 18% 361M 2015-03-31
BB Biotech AG Ord -1% 7% 79% 7% 14% - 2015-03-31
XITIC Lihua Value Trust 3 20% 21% 79% 21% 33% - 2015-03-31
DB Agriculture Double Short ETN 9% 21% 79% 21% 2% - 2015-03-31
Estlander & Partners Alpha Trend II P -3% 19% 79% 19% -1% - 2015-03-31
SZITIC Longrising Trust 8 17% 43% 79% 43% 10% - 2015-03-31
PowerShares China A-Share ETF 9% 2% 79% 2% 35% - 2015-03-31
D'Best Futures Fund, L.P. 7% 15% 78% 15% 12% - 2015-03-31
ZH SunSource 5 18% 25% 78% 25% 50% - 2015-03-31
DNB Telenor X3 BULL ETN 17% 17% 78% 17% 49% - 2015-03-31
SMN Diversified Futures Fund 2% 9% 78% 9% 0% - 2015-03-31
ComStage FTSE China A50 ETF 11% 6% 78% 6% 34% 22M 2015-03-31
China H-share Bull 2x ETF 1% 0% 78% 0% 29% 729M 2015-03-31
CFS FC WS Inv-PM Capital W Abs Perform 7% 30% 78% 46% 2% 40M 2013-07-31
CITIC Wealth Success 1 12% 35% 78% 35% 20% - 2015-03-31
CFS FC W Pen-PM Capital W Absolute Perf 7% 30% 78% 46% 0% 40M 2013-07-31
YNIT China Dragon Value Capital Trust 5 9% 8% 77% 8% 12% - 2015-03-31
UBS Bloomberg CMCI Corn USD ETC 6% 0% 77% 15% 0% - 2011-07-31
UBS Bloomberg CMCI Corn CHF Hdgd ETC 6% 0% 77% 15% 0% - 2011-07-31
UBS Bloomberg CMCI Corn EUR Hdgd ETC 6% 0% 77% 15% 0% - 2011-07-31
Marco Polo Pure China Fund A 15% 18% 77% 18% 13% - 2015-03-31
Franklin India I Acc € 2% 19% 77% 19% 16% 3820M 2015-03-31
Direxion Daily Real Estate Bull 3X ETF 3% 11% 77% 11% 57% - 2015-03-31
Franklin India I YDis € 2% 19% 77% 19% 14% 3820M 2015-03-31
E Fund CSI 100 A-Share ETF 11% 8% 77% 8% 22% 1453M 2015-03-31
ProShares UltraShort Bloomberg Commodity 10% 10% 77% 10% -3% - 2015-03-31
DaCheng CSI 500 SZ Market ETF 19% 34% 77% 34% 41% 5M 2015-03-31
Mulvaney Global Markets Fund Limited 3% 10% 76% 10% 17% 82M 2015-03-31
ChinaAMC SSE Materials Sector ETF 15% 21% 76% 21% 18% 84M 2015-03-31

All our data is licensed from Morningstar UK Ltd. Important legal information